sensor_id;sensor_type;location;lat;lon;timestamp;P1;durP1;ratioP1;P2;durP2;ratioP2
27746;SDS011;15138;51.012;4.692;2023-02-28T00:01:27;9.98;;;3.50;;
27746;SDS011;15138;51.012;4.692;2023-02-28T00:03:57;9.70;;;3.70;;
27746;SDS011;15138;51.012;4.692;2023-02-28T00:06:26;10.27;;;4.35;;
27746;SDS011;15138;51.012;4.692;2023-02-28T00:08:55;7.65;;;3.72;;
27746;SDS011;15138;51.012;4.692;2023-02-28T00:11:23;8.55;;;3.45;;
27746;SDS011;15138;51.012;4.692;2023-02-28T00:13:52;8.10;;;3.65;;
27746;SDS011;15138;51.012;4.692;2023-02-28T00:16:21;10.07;;;4.75;;
27746;SDS011;15138;51.012;4.692;2023-02-28T00:18:51;7.43;;;3.80;;
27746;SDS011;15138;51.012;4.692;2023-02-28T00:21:20;6.65;;;3.70;;
27746;SDS011;15138;51.012;4.692;2023-02-28T00:23:48;8.43;;;4.20;;
27746;SDS011;15138;51.012;4.692;2023-02-28T00:26:17;11.05;;;4.25;;
27746;SDS011;15138;51.012;4.692;2023-02-28T00:28:47;7.32;;;3.85;;
27746;SDS011;15138;51.012;4.692;2023-02-28T00:31:16;7.40;;;3.85;;
27746;SDS011;15138;51.012;4.692;2023-02-28T00:33:44;7.25;;;3.53;;
27746;SDS011;15138;51.012;4.692;2023-02-28T00:36:14;8.95;;;3.85;;
27746;SDS011;15138;51.012;4.692;2023-02-28T00:38:42;9.27;;;4.32;;
27746;SDS011;15138;51.012;4.692;2023-02-28T00:41:10;5.90;;;3.15;;
27746;SDS011;15138;51.012;4.692;2023-02-28T00:43:39;6.32;;;3.80;;
27746;SDS011;15138;51.012;4.692;2023-02-28T00:46:08;8.18;;;3.35;;
27746;SDS011;15138;51.012;4.692;2023-02-28T00:48:36;6.63;;;3.33;;
27746;SDS011;15138;51.012;4.692;2023-02-28T00:51:05;8.63;;;4.20;;
27746;SDS011;15138;51.012;4.692;2023-02-28T00:53:35;8.45;;;4.00;;
27746;SDS011;15138;51.012;4.692;2023-02-28T00:56:03;6.03;;;3.70;;
27746;SDS011;15138;51.012;4.692;2023-02-28T00:58:32;8.45;;;3.20;;
27746;SDS011;15138;51.012;4.692;2023-02-28T01:01:00;7.28;;;3.75;;
27746;SDS011;15138;51.012;4.692;2023-02-28T01:03:28;7.05;;;3.85;;
27746;SDS011;15138;51.012;4.692;2023-02-28T01:05:57;7.28;;;3.22;;
27746;SDS011;15138;51.012;4.692;2023-02-28T01:08:25;5.22;;;3.28;;
27746;SDS011;15138;51.012;4.692;2023-02-28T01:10:55;8.25;;;3.58;;
27746;SDS011;15138;51.012;4.692;2023-02-28T01:13:24;8.63;;;4.10;;
27746;SDS011;15138;51.012;4.692;2023-02-28T01:15:54;6.65;;;3.63;;
27746;SDS011;15138;51.012;4.692;2023-02-28T01:18:23;6.28;;;3.10;;
27746;SDS011;15138;51.012;4.692;2023-02-28T01:20:52;7.10;;;3.60;;
27746;SDS011;15138;51.012;4.692;2023-02-28T01:23:21;6.78;;;3.53;;
27746;SDS011;15138;51.012;4.692;2023-02-28T01:25:50;5.15;;;3.17;;
27746;SDS011;15138;51.012;4.692;2023-02-28T01:28:20;6.25;;;3.70;;
27746;SDS011;15138;51.012;4.692;2023-02-28T01:30:49;5.88;;;3.35;;
27746;SDS011;15138;51.012;4.692;2023-02-28T01:33:18;10.40;;;3.97;;
27746;SDS011;15138;51.012;4.692;2023-02-28T01:35:46;14.80;;;4.97;;
27746;SDS011;15138;51.012;4.692;2023-02-28T01:38:15;8.90;;;3.78;;
27746;SDS011;15138;51.012;4.692;2023-02-28T01:40:49;8.77;;;3.65;;
27746;SDS011;15138;51.012;4.692;2023-02-28T01:43:21;7.00;;;3.65;;
27746;SDS011;15138;51.012;4.692;2023-02-28T01:45:52;9.63;;;4.97;;
27746;SDS011;15138;51.012;4.692;2023-02-28T01:48:22;6.43;;;3.28;;
27746;SDS011;15138;51.012;4.692;2023-02-28T01:50:53;9.27;;;4.07;;
27746;SDS011;15138;51.012;4.692;2023-02-28T01:53:26;10.65;;;4.88;;
27746;SDS011;15138;51.012;4.692;2023-02-28T01:55:58;7.38;;;4.47;;
27746;SDS011;15138;51.012;4.692;2023-02-28T01:58:28;7.28;;;4.15;;
27746;SDS011;15138;51.012;4.692;2023-02-28T02:00:56;8.55;;;4.57;;
27746;SDS011;15138;51.012;4.692;2023-02-28T02:03:25;13.45;;;5.38;;
27746;SDS011;15138;51.012;4.692;2023-02-28T02:05:53;7.85;;;4.65;;
27746;SDS011;15138;51.012;4.692;2023-02-28T02:08:22;6.45;;;3.78;;
27746;SDS011;15138;51.012;4.692;2023-02-28T02:10:53;8.50;;;5.18;;
27746;SDS011;15138;51.012;4.692;2023-02-28T02:13:34;6.20;;;4.05;;
27746;SDS011;15138;51.012;4.692;2023-02-28T02:16:16;9.10;;;4.55;;
27746;SDS011;15138;51.012;4.692;2023-02-28T02:18:57;9.75;;;5.30;;
27746;SDS011;15138;51.012;4.692;2023-02-28T02:21:45;9.07;;;4.28;;
27746;SDS011;15138;51.012;4.692;2023-02-28T02:24:32;7.25;;;4.55;;
27746;SDS011;15138;51.012;4.692;2023-02-28T02:27:17;6.68;;;4.53;;
27746;SDS011;15138;51.012;4.692;2023-02-28T02:30:17;8.07;;;4.07;;
27746;SDS011;15138;51.012;4.692;2023-02-28T02:33:23;12.85;;;4.85;;
27746;SDS011;15138;51.012;4.692;2023-02-28T02:36:09;8.38;;;4.90;;
27746;SDS011;15138;51.012;4.692;2023-02-28T02:38:42;8.88;;;4.70;;
27746;SDS011;15138;51.012;4.692;2023-02-28T02:41:16;11.35;;;4.63;;
27746;SDS011;15138;51.012;4.692;2023-02-28T02:43:51;11.00;;;4.85;;
27746;SDS011;15138;51.012;4.692;2023-02-28T02:46:25;7.70;;;4.38;;
27746;SDS011;15138;51.012;4.692;2023-02-28T02:48:57;7.50;;;3.95;;
27746;SDS011;15138;51.012;4.692;2023-02-28T02:51:29;6.50;;;4.03;;
27746;SDS011;15138;51.012;4.692;2023-02-28T02:54:02;7.93;;;5.10;;
27746;SDS011;15138;51.012;4.692;2023-02-28T02:56:36;7.57;;;4.47;;
27746;SDS011;15138;51.012;4.692;2023-02-28T02:59:07;9.40;;;5.10;;
27746;SDS011;15138;51.012;4.692;2023-02-28T03:01:40;8.93;;;4.90;;
27746;SDS011;15138;51.012;4.692;2023-02-28T03:04:10;10.77;;;5.53;;
27746;SDS011;15138;51.012;4.692;2023-02-28T03:06:45;7.93;;;4.77;;
27746;SDS011;15138;51.012;4.692;2023-02-28T03:09:13;9.77;;;5.68;;
27746;SDS011;15138;51.012;4.692;2023-02-28T03:11:42;8.00;;;4.50;;
27746;SDS011;15138;51.012;4.692;2023-02-28T03:14:15;9.40;;;4.40;;
27746;SDS011;15138;51.012;4.692;2023-02-28T03:17:01;9.93;;;5.43;;
27746;SDS011;15138;51.012;4.692;2023-02-28T03:19:47;8.30;;;4.57;;
27746;SDS011;15138;51.012;4.692;2023-02-28T03:25:30;8.93;;;4.32;;
27746;SDS011;15138;51.012;4.692;2023-02-28T03:28:07;7.88;;;5.05;;
27746;SDS011;15138;51.012;4.692;2023-02-28T03:30:45;9.63;;;5.63;;
27746;SDS011;15138;51.012;4.692;2023-02-28T03:33:21;9.57;;;5.28;;
27746;SDS011;15138;51.012;4.692;2023-02-28T03:35:54;8.93;;;5.00;;
27746;SDS011;15138;51.012;4.692;2023-02-28T03:38:29;8.65;;;4.80;;
27746;SDS011;15138;51.012;4.692;2023-02-28T03:41:02;12.35;;;5.60;;
27746;SDS011;15138;51.012;4.692;2023-02-28T03:43:34;8.63;;;5.20;;
27746;SDS011;15138;51.012;4.692;2023-02-28T03:46:07;10.85;;;5.65;;
27746;SDS011;15138;51.012;4.692;2023-02-28T03:48:40;10.30;;;4.57;;
27746;SDS011;15138;51.012;4.692;2023-02-28T03:51:12;10.45;;;4.82;;
27746;SDS011;15138;51.012;4.692;2023-02-28T03:53:45;12.35;;;5.55;;
27746;SDS011;15138;51.012;4.692;2023-02-28T03:56:19;7.10;;;4.53;;
27746;SDS011;15138;51.012;4.692;2023-02-28T03:58:51;9.07;;;5.72;;
27746;SDS011;15138;51.012;4.692;2023-02-28T04:01:27;9.40;;;4.93;;
27746;SDS011;15138;51.012;4.692;2023-02-28T04:04:00;8.88;;;3.90;;
27746;SDS011;15138;51.012;4.692;2023-02-28T04:06:30;8.60;;;4.55;;
27746;SDS011;15138;51.012;4.692;2023-02-28T04:09:01;8.50;;;4.68;;
27746;SDS011;15138;51.012;4.692;2023-02-28T04:11:32;8.88;;;4.68;;
27746;SDS011;15138;51.012;4.692;2023-02-28T04:14:03;9.70;;;5.50;;
27746;SDS011;15138;51.012;4.692;2023-02-28T04:16:33;7.30;;;4.60;;
27746;SDS011;15138;51.012;4.692;2023-02-28T04:19:03;10.85;;;6.43;;
27746;SDS011;15138;51.012;4.692;2023-02-28T04:21:34;8.00;;;4.80;;
27746;SDS011;15138;51.012;4.692;2023-02-28T04:24:05;8.70;;;5.10;;
27746;SDS011;15138;51.012;4.692;2023-02-28T04:26:35;9.88;;;5.45;;
27746;SDS011;15138;51.012;4.692;2023-02-28T04:29:04;10.15;;;5.53;;
27746;SDS011;15138;51.012;4.692;2023-02-28T04:31:33;12.07;;;5.30;;
27746;SDS011;15138;51.012;4.692;2023-02-28T04:34:02;9.68;;;6.03;;
27746;SDS011;15138;51.012;4.692;2023-02-28T04:36:30;8.88;;;4.53;;
27746;SDS011;15138;51.012;4.692;2023-02-28T04:38:58;11.65;;;7.30;;
27746;SDS011;15138;51.012;4.692;2023-02-28T04:41:28;8.25;;;5.82;;
27746;SDS011;15138;51.012;4.692;2023-02-28T04:43:58;8.02;;;4.72;;
27746;SDS011;15138;51.012;4.692;2023-02-28T04:46:26;9.07;;;5.57;;
27746;SDS011;15138;51.012;4.692;2023-02-28T04:48:55;13.00;;;5.65;;
27746;SDS011;15138;51.012;4.692;2023-02-28T04:51:24;12.05;;;6.85;;
27746;SDS011;15138;51.012;4.692;2023-02-28T04:53:53;13.38;;;6.65;;
27746;SDS011;15138;51.012;4.692;2023-02-28T04:56:22;8.25;;;5.55;;
27746;SDS011;15138;51.012;4.692;2023-02-28T04:58:52;9.20;;;4.75;;
27746;SDS011;15138;51.012;4.692;2023-02-28T05:01:22;10.38;;;5.07;;
27746;SDS011;15138;51.012;4.692;2023-02-28T05:03:54;8.90;;;4.72;;
27746;SDS011;15138;51.012;4.692;2023-02-28T05:06:25;10.20;;;5.88;;
27746;SDS011;15138;51.012;4.692;2023-02-28T05:08:54;13.50;;;7.65;;
27746;SDS011;15138;51.012;4.692;2023-02-28T05:11:24;8.73;;;5.20;;
27746;SDS011;15138;51.012;4.692;2023-02-28T05:13:55;10.60;;;5.70;;
27746;SDS011;15138;51.012;4.692;2023-02-28T05:16:23;9.50;;;4.53;;
27746;SDS011;15138;51.012;4.692;2023-02-28T05:18:51;9.43;;;4.72;;
27746;SDS011;15138;51.012;4.692;2023-02-28T05:21:22;10.23;;;5.63;;
27746;SDS011;15138;51.012;4.692;2023-02-28T05:23:54;8.40;;;4.68;;
27746;SDS011;15138;51.012;4.692;2023-02-28T05:26:23;6.50;;;4.50;;
27746;SDS011;15138;51.012;4.692;2023-02-28T05:28:52;11.13;;;5.80;;
27746;SDS011;15138;51.012;4.692;2023-02-28T05:31:22;13.65;;;6.90;;
27746;SDS011;15138;51.012;4.692;2023-02-28T05:33:50;14.13;;;6.88;;
27746;SDS011;15138;51.012;4.692;2023-02-28T05:36:19;10.95;;;7.07;;
27746;SDS011;15138;51.012;4.692;2023-02-28T05:38:47;14.40;;;7.32;;
27746;SDS011;15138;51.012;4.692;2023-02-28T05:41:16;9.68;;;4.93;;
27746;SDS011;15138;51.012;4.692;2023-02-28T05:43:45;10.35;;;5.72;;
27746;SDS011;15138;51.012;4.692;2023-02-28T05:46:15;15.80;;;7.78;;
27746;SDS011;15138;51.012;4.692;2023-02-28T05:48:47;8.95;;;5.82;;
27746;SDS011;15138;51.012;4.692;2023-02-28T05:51:16;11.25;;;7.50;;
27746;SDS011;15138;51.012;4.692;2023-02-28T05:53:45;10.55;;;6.22;;
27746;SDS011;15138;51.012;4.692;2023-02-28T05:56:14;17.38;;;6.85;;
27746;SDS011;15138;51.012;4.692;2023-02-28T05:58:43;13.32;;;7.53;;
27746;SDS011;15138;51.012;4.692;2023-02-28T06:01:21;15.98;;;7.82;;
27746;SDS011;15138;51.012;4.692;2023-02-28T06:03:53;7.95;;;5.20;;
27746;SDS011;15138;51.012;4.692;2023-02-28T06:06:21;15.40;;;6.40;;
27746;SDS011;15138;51.012;4.692;2023-02-28T06:08:49;11.70;;;5.55;;
27746;SDS011;15138;51.012;4.692;2023-02-28T06:11:18;14.60;;;6.88;;
27746;SDS011;15138;51.012;4.692;2023-02-28T06:13:46;10.93;;;5.68;;
27746;SDS011;15138;51.012;4.692;2023-02-28T06:16:15;15.45;;;7.32;;
27746;SDS011;15138;51.012;4.692;2023-02-28T06:18:44;11.40;;;7.13;;
27746;SDS011;15138;51.012;4.692;2023-02-28T06:21:13;12.73;;;7.43;;
27746;SDS011;15138;51.012;4.692;2023-02-28T06:23:42;12.35;;;7.50;;
27746;SDS011;15138;51.012;4.692;2023-02-28T06:26:10;14.50;;;7.28;;
27746;SDS011;15138;51.012;4.692;2023-02-28T06:28:39;7.72;;;5.00;;
27746;SDS011;15138;51.012;4.692;2023-02-28T06:31:08;11.07;;;6.03;;
27746;SDS011;15138;51.012;4.692;2023-02-28T06:33:37;15.27;;;7.78;;
27746;SDS011;15138;51.012;4.692;2023-02-28T06:36:07;10.55;;;6.43;;
27746;SDS011;15138;51.012;4.692;2023-02-28T06:38:38;16.60;;;8.30;;
27746;SDS011;15138;51.012;4.692;2023-02-28T06:41:07;11.48;;;6.28;;
27746;SDS011;15138;51.012;4.692;2023-02-28T06:43:36;9.50;;;6.43;;
27746;SDS011;15138;51.012;4.692;2023-02-28T06:46:07;8.90;;;6.05;;
27746;SDS011;15138;51.012;4.692;2023-02-28T06:48:38;12.05;;;7.43;;
27746;SDS011;15138;51.012;4.692;2023-02-28T06:51:08;12.13;;;6.70;;
27746;SDS011;15138;51.012;4.692;2023-02-28T06:53:39;12.80;;;5.68;;
27746;SDS011;15138;51.012;4.692;2023-02-28T06:56:08;12.57;;;6.50;;
27746;SDS011;15138;51.012;4.692;2023-02-28T06:58:38;14.48;;;6.95;;
27746;SDS011;15138;51.012;4.692;2023-02-28T07:01:07;18.85;;;6.47;;
27746;SDS011;15138;51.012;4.692;2023-02-28T07:03:36;9.80;;;6.00;;
27746;SDS011;15138;51.012;4.692;2023-02-28T07:06:05;10.40;;;6.03;;
27746;SDS011;15138;51.012;4.692;2023-02-28T07:08:34;9.80;;;5.28;;
27746;SDS011;15138;51.012;4.692;2023-02-28T07:11:04;12.38;;;6.72;;
27746;SDS011;15138;51.012;4.692;2023-02-28T07:13:32;12.48;;;5.93;;
27746;SDS011;15138;51.012;4.692;2023-02-28T07:16:02;9.20;;;4.95;;
27746;SDS011;15138;51.012;4.692;2023-02-28T07:18:31;13.20;;;6.60;;
27746;SDS011;15138;51.012;4.692;2023-02-28T07:21:01;13.10;;;7.18;;
27746;SDS011;15138;51.012;4.692;2023-02-28T07:23:30;13.10;;;7.05;;
27746;SDS011;15138;51.012;4.692;2023-02-28T07:25:58;14.82;;;8.15;;
27746;SDS011;15138;51.012;4.692;2023-02-28T07:28:28;9.98;;;5.95;;
27746;SDS011;15138;51.012;4.692;2023-02-28T07:30:56;13.75;;;7.55;;
27746;SDS011;15138;51.012;4.692;2023-02-28T07:33:30;11.68;;;6.82;;
27746;SDS011;15138;51.012;4.692;2023-02-28T07:36:02;12.98;;;5.47;;
27746;SDS011;15138;51.012;4.692;2023-02-28T07:38:33;13.32;;;6.47;;
27746;SDS011;15138;51.012;4.692;2023-02-28T07:41:02;12.48;;;6.65;;
27746;SDS011;15138;51.012;4.692;2023-02-28T07:43:32;17.98;;;7.30;;
27746;SDS011;15138;51.012;4.692;2023-02-28T07:46:01;11.32;;;5.80;;
27746;SDS011;15138;51.012;4.692;2023-02-28T07:48:31;13.55;;;7.15;;
27746;SDS011;15138;51.012;4.692;2023-02-28T07:50:59;8.27;;;5.28;;
27746;SDS011;15138;51.012;4.692;2023-02-28T07:53:29;12.13;;;6.82;;
27746;SDS011;15138;51.012;4.692;2023-02-28T07:55:58;12.15;;;6.70;;
27746;SDS011;15138;51.012;4.692;2023-02-28T07:58:27;10.88;;;6.13;;
27746;SDS011;15138;51.012;4.692;2023-02-28T08:00:57;14.40;;;6.30;;
27746;SDS011;15138;51.012;4.692;2023-02-28T08:03:33;12.18;;;5.55;;
27746;SDS011;15138;51.012;4.692;2023-02-28T08:06:02;10.77;;;6.18;;
27746;SDS011;15138;51.012;4.692;2023-02-28T08:08:31;11.98;;;6.40;;
27746;SDS011;15138;51.012;4.692;2023-02-28T08:11:00;11.52;;;6.65;;
27746;SDS011;15138;51.012;4.692;2023-02-28T08:13:29;11.95;;;6.22;;
27746;SDS011;15138;51.012;4.692;2023-02-28T08:16:00;7.97;;;4.97;;
27746;SDS011;15138;51.012;4.692;2023-02-28T08:18:29;12.60;;;5.00;;
27746;SDS011;15138;51.012;4.692;2023-02-28T08:21:04;7.07;;;4.43;;
27746;SDS011;15138;51.012;4.692;2023-02-28T08:23:33;5.90;;;3.65;;
27746;SDS011;15138;51.012;4.692;2023-02-28T08:26:02;10.05;;;4.32;;
27746;SDS011;15138;51.012;4.692;2023-02-28T08:28:34;9.18;;;4.65;;
27746;SDS011;15138;51.012;4.692;2023-02-28T08:31:08;10.35;;;4.38;;
27746;SDS011;15138;51.012;4.692;2023-02-28T08:33:38;8.32;;;4.65;;
27746;SDS011;15138;51.012;4.692;2023-02-28T08:36:07;8.75;;;4.55;;
27746;SDS011;15138;51.012;4.692;2023-02-28T08:38:36;6.45;;;3.90;;
27746;SDS011;15138;51.012;4.692;2023-02-28T08:41:06;10.45;;;3.80;;
27746;SDS011;15138;51.012;4.692;2023-02-28T08:43:36;6.78;;;3.88;;
27746;SDS011;15138;51.012;4.692;2023-02-28T08:46:05;4.93;;;2.63;;
27746;SDS011;15138;51.012;4.692;2023-02-28T08:48:38;5.28;;;1.65;;
27746;SDS011;15138;51.012;4.692;2023-02-28T08:51:08;7.75;;;3.50;;
27746;SDS011;15138;51.012;4.692;2023-02-28T08:53:38;6.32;;;3.35;;
27746;SDS011;15138;51.012;4.692;2023-02-28T08:56:08;6.55;;;3.03;;
27746;SDS011;15138;51.012;4.692;2023-02-28T08:58:37;6.85;;;3.00;;
27746;SDS011;15138;51.012;4.692;2023-02-28T09:01:11;4.70;;;2.90;;
27746;SDS011;15138;51.012;4.692;2023-02-28T09:03:41;6.90;;;2.80;;
27746;SDS011;15138;51.012;4.692;2023-02-28T09:06:13;7.38;;;3.35;;
27746;SDS011;15138;51.012;4.692;2023-02-28T09:08:42;8.45;;;3.50;;
27746;SDS011;15138;51.012;4.692;2023-02-28T09:11:11;5.18;;;3.10;;
27746;SDS011;15138;51.012;4.692;2023-02-28T09:13:39;7.22;;;3.33;;
27746;SDS011;15138;51.012;4.692;2023-02-28T09:16:10;5.38;;;3.10;;
27746;SDS011;15138;51.012;4.692;2023-02-28T09:18:39;5.90;;;2.72;;
27746;SDS011;15138;51.012;4.692;2023-02-28T09:21:08;3.70;;;2.85;;
27746;SDS011;15138;51.012;4.692;2023-02-28T09:23:40;4.90;;;2.67;;
27746;SDS011;15138;51.012;4.692;2023-02-28T09:26:12;8.27;;;3.05;;
27746;SDS011;15138;51.012;4.692;2023-02-28T09:28:42;5.38;;;2.60;;
27746;SDS011;15138;51.012;4.692;2023-02-28T09:31:13;4.20;;;1.88;;
27746;SDS011;15138;51.012;4.692;2023-02-28T09:33:43;3.92;;;2.25;;
27746;SDS011;15138;51.012;4.692;2023-02-28T09:36:11;7.43;;;2.60;;
27746;SDS011;15138;51.012;4.692;2023-02-28T09:38:39;3.90;;;2.85;;
27746;SDS011;15138;51.012;4.692;2023-02-28T09:41:13;3.05;;;2.22;;
27746;SDS011;15138;51.012;4.692;2023-02-28T09:43:44;4.40;;;1.88;;
27746;SDS011;15138;51.012;4.692;2023-02-28T09:46:21;3.58;;;2.00;;
27746;SDS011;15138;51.012;4.692;2023-02-28T09:48:56;2.22;;;1.52;;
27746;SDS011;15138;51.012;4.692;2023-02-28T09:51:39;5.70;;;2.40;;
27746;SDS011;15138;51.012;4.692;2023-02-28T09:54:13;2.65;;;1.63;;
27746;SDS011;15138;51.012;4.692;2023-02-28T09:56:45;1.55;;;1.02;;
27746;SDS011;15138;51.012;4.692;2023-02-28T09:59:27;3.35;;;2.00;;
27746;SDS011;15138;51.012;4.692;2023-02-28T10:02:08;3.47;;;1.80;;
27746;SDS011;15138;51.012;4.692;2023-02-28T10:04:47;4.30;;;2.00;;
27746;SDS011;15138;51.012;4.692;2023-02-28T10:07:23;4.50;;;2.30;;
27746;SDS011;15138;51.012;4.692;2023-02-28T10:10:06;6.20;;;2.00;;
27746;SDS011;15138;51.012;4.692;2023-02-28T10:12:47;3.25;;;2.00;;
27746;SDS011;15138;51.012;4.692;2023-02-28T10:15:16;4.03;;;1.83;;
27746;SDS011;15138;51.012;4.692;2023-02-28T10:17:47;4.05;;;2.00;;
27746;SDS011;15138;51.012;4.692;2023-02-28T10:20:34;3.90;;;1.90;;
27746;SDS011;15138;51.012;4.692;2023-02-28T10:23:08;4.28;;;2.35;;
27746;SDS011;15138;51.012;4.692;2023-02-28T10:25:40;5.78;;;1.80;;
27746;SDS011;15138;51.012;4.692;2023-02-28T10:28:15;3.42;;;1.70;;
27746;SDS011;15138;51.012;4.692;2023-02-28T10:30:46;3.25;;;2.13;;
27746;SDS011;15138;51.012;4.692;2023-02-28T10:33:21;5.40;;;2.50;;
27746;SDS011;15138;51.012;4.692;2023-02-28T10:35:51;5.32;;;2.10;;
27746;SDS011;15138;51.012;4.692;2023-02-28T10:38:21;2.92;;;1.80;;
27746;SDS011;15138;51.012;4.692;2023-02-28T10:41:05;4.63;;;2.25;;
27746;SDS011;15138;51.012;4.692;2023-02-28T10:43:35;3.30;;;2.10;;
27746;SDS011;15138;51.012;4.692;2023-02-28T10:46:05;5.35;;;2.00;;
27746;SDS011;15138;51.012;4.692;2023-02-28T10:49:02;2.40;;;1.38;;
27746;SDS011;15138;51.012;4.692;2023-02-28T10:51:35;3.90;;;2.40;;
27746;SDS011;15138;51.012;4.692;2023-02-28T10:54:05;3.97;;;2.10;;
27746;SDS011;15138;51.012;4.692;2023-02-28T10:56:45;7.05;;;2.30;;
27746;SDS011;15138;51.012;4.692;2023-02-28T10:59:33;3.95;;;1.98;;
27746;SDS011;15138;51.012;4.692;2023-02-28T11:02:07;3.00;;;1.75;;
27746;SDS011;15138;51.012;4.692;2023-02-28T11:07:58;3.88;;;2.20;;
27746;SDS011;15138;51.012;4.692;2023-02-28T11:10:32;5.30;;;1.90;;
27746;SDS011;15138;51.012;4.692;2023-02-28T11:13:01;4.15;;;1.52;;
27746;SDS011;15138;51.012;4.692;2023-02-28T11:15:31;3.15;;;1.70;;
27746;SDS011;15138;51.012;4.692;2023-02-28T11:18:01;2.00;;;1.60;;
27746;SDS011;15138;51.012;4.692;2023-02-28T11:20:48;1.98;;;1.67;;
27746;SDS011;15138;51.012;4.692;2023-02-28T11:23:18;3.45;;;1.83;;
27746;SDS011;15138;51.012;4.692;2023-02-28T11:25:48;5.93;;;2.45;;
27746;SDS011;15138;51.012;4.692;2023-02-28T11:28:24;7.78;;;2.20;;
27746;SDS011;15138;51.012;4.692;2023-02-28T11:31:03;3.73;;;1.53;;
27746;SDS011;15138;51.012;4.692;2023-02-28T11:33:40;3.70;;;1.58;;
27746;SDS011;15138;51.012;4.692;2023-02-28T11:36:14;6.25;;;1.83;;
27746;SDS011;15138;51.012;4.692;2023-02-28T11:38:46;3.30;;;1.80;;
27746;SDS011;15138;51.012;4.692;2023-02-28T11:41:26;3.58;;;1.75;;
27746;SDS011;15138;51.012;4.692;2023-02-28T11:44:09;3.08;;;1.70;;
27746;SDS011;15138;51.012;4.692;2023-02-28T11:49:26;2.60;;;1.60;;
27746;SDS011;15138;51.012;4.692;2023-02-28T11:52:05;3.30;;;1.65;;
27746;SDS011;15138;51.012;4.692;2023-02-28T11:54:50;4.53;;;1.90;;
27746;SDS011;15138;51.012;4.692;2023-02-28T11:57:36;3.05;;;1.70;;
27746;SDS011;15138;51.012;4.692;2023-02-28T12:00:27;3.15;;;1.83;;
27746;SDS011;15138;51.012;4.692;2023-02-28T12:03:06;5.30;;;1.80;;
27746;SDS011;15138;51.012;4.692;2023-02-28T12:05:41;4.75;;;1.88;;
27746;SDS011;15138;51.012;4.692;2023-02-28T12:11:10;4.88;;;1.77;;
27746;SDS011;15138;51.012;4.692;2023-02-28T12:13:48;3.28;;;1.90;;
27746;SDS011;15138;51.012;4.692;2023-02-28T12:16:28;4.47;;;1.80;;
27746;SDS011;15138;51.012;4.692;2023-02-28T12:19:19;2.53;;;1.58;;
27746;SDS011;15138;51.012;4.692;2023-02-28T12:22:03;3.08;;;1.60;;
27746;SDS011;15138;51.012;4.692;2023-02-28T12:28:04;4.55;;;1.92;;
27746;SDS011;15138;51.012;4.692;2023-02-28T12:30:37;3.83;;;1.27;;
27746;SDS011;15138;51.012;4.692;2023-02-28T12:33:14;3.70;;;1.83;;
27746;SDS011;15138;51.012;4.692;2023-02-28T12:35:48;3.90;;;1.67;;
27746;SDS011;15138;51.012;4.692;2023-02-28T12:38:22;3.23;;;1.70;;
27746;SDS011;15138;51.012;4.692;2023-02-28T12:40:54;3.45;;;1.90;;
27746;SDS011;15138;51.012;4.692;2023-02-28T12:43:30;2.78;;;1.70;;
27746;SDS011;15138;51.012;4.692;2023-02-28T12:46:05;2.88;;;1.60;;
27746;SDS011;15138;51.012;4.692;2023-02-28T12:48:38;2.50;;;1.63;;
27746;SDS011;15138;51.012;4.692;2023-02-28T12:51:10;3.28;;;1.92;;
27746;SDS011;15138;51.012;4.692;2023-02-28T12:53:45;2.50;;;1.70;;
27746;SDS011;15138;51.012;4.692;2023-02-28T12:56:33;6.97;;;2.20;;
27746;SDS011;15138;51.012;4.692;2023-02-28T12:59:12;2.55;;;1.10;;
27746;SDS011;15138;51.012;4.692;2023-02-28T13:01:57;2.30;;;1.50;;
27746;SDS011;15138;51.012;4.692;2023-02-28T13:04:42;2.88;;;1.80;;
27746;SDS011;15138;51.012;4.692;2023-02-28T13:10:40;3.63;;;1.90;;
27746;SDS011;15138;51.012;4.692;2023-02-28T13:13:15;3.17;;;1.40;;
27746;SDS011;15138;51.012;4.692;2023-02-28T13:18:33;2.92;;;1.83;;
27746;SDS011;15138;51.012;4.692;2023-02-28T13:21:06;4.47;;;1.75;;
27746;SDS011;15138;51.012;4.692;2023-02-28T13:29:54;2.95;;;1.63;;
27746;SDS011;15138;51.012;4.692;2023-02-28T13:38:24;7.00;;;2.38;;
27746;SDS011;15138;51.012;4.692;2023-02-28T13:44:14;2.90;;;1.60;;
27746;SDS011;15138;51.012;4.692;2023-02-28T13:49:53;3.95;;;1.38;;
27746;SDS011;15138;51.012;4.692;2023-02-28T13:52:22;2.60;;;1.83;;
27746;SDS011;15138;51.012;4.692;2023-02-28T13:54:54;4.00;;;2.20;;
27746;SDS011;15138;51.012;4.692;2023-02-28T13:57:35;4.50;;;1.83;;
27746;SDS011;15138;51.012;4.692;2023-02-28T14:00:16;6.68;;;2.42;;
27746;SDS011;15138;51.012;4.692;2023-02-28T14:02:56;3.60;;;2.15;;
27746;SDS011;15138;51.012;4.692;2023-02-28T14:05:36;5.53;;;2.22;;
27746;SDS011;15138;51.012;4.692;2023-02-28T14:08:06;3.75;;;2.53;;
27746;SDS011;15138;51.012;4.692;2023-02-28T14:10:42;6.68;;;2.28;;
27746;SDS011;15138;51.012;4.692;2023-02-28T14:13:17;3.45;;;2.10;;
27746;SDS011;15138;51.012;4.692;2023-02-28T14:16:11;5.13;;;2.25;;
27746;SDS011;15138;51.012;4.692;2023-02-28T14:18:47;3.20;;;1.83;;
27746;SDS011;15138;51.012;4.692;2023-02-28T14:21:23;6.28;;;2.10;;
27746;SDS011;15138;51.012;4.692;2023-02-28T14:24:06;4.67;;;2.20;;
27746;SDS011;15138;51.012;4.692;2023-02-28T14:26:55;6.78;;;2.13;;
27746;SDS011;15138;51.012;4.692;2023-02-28T14:32:33;3.65;;;2.25;;
27746;SDS011;15138;51.012;4.692;2023-02-28T14:35:13;3.00;;;1.98;;
27746;SDS011;15138;51.012;4.692;2023-02-28T14:37:51;3.92;;;2.08;;
27746;SDS011;15138;51.012;4.692;2023-02-28T14:40:22;1.73;;;1.15;;
27746;SDS011;15138;51.012;4.692;2023-02-28T14:42:58;3.10;;;1.90;;
27746;SDS011;15138;51.012;4.692;2023-02-28T14:45:29;4.53;;;2.33;;
27746;SDS011;15138;51.012;4.692;2023-02-28T14:47:58;6.20;;;2.67;;
27746;SDS011;15138;51.012;4.692;2023-02-28T14:50:29;3.47;;;2.25;;
27746;SDS011;15138;51.012;4.692;2023-02-28T14:53:01;6.55;;;2.25;;
27746;SDS011;15138;51.012;4.692;2023-02-28T14:55:30;3.00;;;2.22;;
27746;SDS011;15138;51.012;4.692;2023-02-28T14:58:01;2.40;;;1.17;;
27746;SDS011;15138;51.012;4.692;2023-02-28T15:00:31;2.42;;;1.60;;
27746;SDS011;15138;51.012;4.692;2023-02-28T15:03:11;5.15;;;2.20;;
27746;SDS011;15138;51.012;4.692;2023-02-28T15:05:56;5.15;;;2.63;;
27746;SDS011;15138;51.012;4.692;2023-02-28T15:08:27;4.40;;;2.20;;
27746;SDS011;15138;51.012;4.692;2023-02-28T15:10:55;4.47;;;2.13;;
27746;SDS011;15138;51.012;4.692;2023-02-28T15:13:26;3.80;;;2.35;;
27746;SDS011;15138;51.012;4.692;2023-02-28T15:16:04;3.50;;;2.30;;
27746;SDS011;15138;51.012;4.692;2023-02-28T15:18:44;4.03;;;2.42;;
27746;SDS011;15138;51.012;4.692;2023-02-28T15:21:16;5.20;;;2.28;;
27746;SDS011;15138;51.012;4.692;2023-02-28T15:23:50;4.75;;;2.15;;
27746;SDS011;15138;51.012;4.692;2023-02-28T15:26:22;3.65;;;2.40;;
27746;SDS011;15138;51.012;4.692;2023-02-28T15:28:56;4.18;;;1.38;;
27746;SDS011;15138;51.012;4.692;2023-02-28T15:31:27;5.57;;;2.15;;
27746;SDS011;15138;51.012;4.692;2023-02-28T15:34:12;3.70;;;2.25;;
27746;SDS011;15138;51.012;4.692;2023-02-28T15:36:48;2.88;;;1.80;;
27746;SDS011;15138;51.012;4.692;2023-02-28T15:39:19;5.40;;;2.45;;
27746;SDS011;15138;51.012;4.692;2023-02-28T15:41:50;3.55;;;2.25;;
27746;SDS011;15138;51.012;4.692;2023-02-28T15:44:25;3.05;;;1.88;;
27746;SDS011;15138;51.012;4.692;2023-02-28T15:47:00;3.90;;;2.33;;
27746;SDS011;15138;51.012;4.692;2023-02-28T15:49:32;5.03;;;2.30;;
27746;SDS011;15138;51.012;4.692;2023-02-28T15:52:12;5.68;;;2.50;;
27746;SDS011;15138;51.012;4.692;2023-02-28T15:54:45;5.63;;;2.58;;
27746;SDS011;15138;51.012;4.692;2023-02-28T15:57:15;4.80;;;2.25;;
27746;SDS011;15138;51.012;4.692;2023-02-28T15:59:49;3.72;;;2.40;;
27746;SDS011;15138;51.012;4.692;2023-02-28T16:02:21;5.63;;;2.53;;